createdAt,value
2017-12-27T00:00:47.981Z,2.20
2017-12-27T00:01:47.990Z,2.90
2017-12-27T00:02:47.990Z,1.50
2017-12-27T00:03:47.997Z,1.50
2017-12-27T00:04:48.003Z,2.10
2017-12-27T00:05:48.009Z,1.70
2017-12-27T00:06:48.011Z,2.00
2017-12-27T00:07:48.015Z,1.80
2017-12-27T00:08:48.018Z,2.20
2017-12-27T00:09:48.024Z,1.80
2017-12-27T00:10:48.032Z,1.90
2017-12-27T00:11:48.042Z,2.80
2017-12-27T00:12:48.041Z,2.50
2017-12-27T00:13:48.046Z,2.50
2017-12-27T00:14:48.055Z,1.70
2017-12-27T00:15:48.052Z,1.60
2017-12-27T00:16:48.060Z,1.50
2017-12-27T00:17:48.060Z,1.30
2017-12-27T00:18:48.066Z,2.30
2017-12-27T00:19:48.081Z,1.70
2017-12-27T00:20:48.081Z,1.40
2017-12-27T00:21:48.087Z,1.80
2017-12-27T00:22:48.083Z,1.90
2017-12-27T00:23:48.094Z,1.50
2017-12-27T00:24:48.093Z,1.60
2017-12-27T00:25:48.097Z,1.60
2017-12-27T00:26:48.107Z,1.60
2017-12-27T00:27:48.107Z,2.30
2017-12-27T00:28:48.117Z,1.40
2017-12-27T00:29:48.122Z,1.50
2017-12-27T00:30:48.134Z,1.60
2017-12-27T00:31:48.135Z,1.70
2017-12-27T00:32:48.134Z,1.40
2017-12-27T00:33:48.136Z,2.10
2017-12-27T00:34:48.150Z,4.40
2017-12-27T00:35:48.149Z,1.40
2017-12-27T00:36:48.158Z,1.40
2017-12-27T00:37:48.156Z,1.70
2017-12-27T00:38:48.163Z,1.40
2017-12-27T00:39:48.171Z,1.30
2017-12-27T00:40:48.170Z,1.40
2017-12-27T00:41:48.188Z,1.50
2017-12-27T00:42:48.185Z,1.40
2017-12-27T00:43:48.184Z,1.40
2017-12-27T00:44:48.199Z,1.50
2017-12-27T00:45:48.203Z,1.50
2017-12-27T00:46:48.199Z,2.80
2017-12-27T00:47:48.204Z,1.80
2017-12-27T00:48:48.210Z,1.30
2017-12-27T00:49:48.217Z,1.70
2017-12-27T00:50:48.218Z,1.30
2017-12-27T00:51:48.223Z,1.90
2017-12-27T00:52:48.228Z,1.40
2017-12-27T00:53:48.233Z,1.60
2017-12-27T00:54:48.239Z,1.80
2017-12-27T00:55:48.242Z,2.40
2017-12-27T00:56:48.249Z,1.50
2017-12-27T00:57:48.251Z,1.80
2017-12-27T00:58:48.268Z,1.60
2017-12-27T00:59:48.270Z,1.50
2017-12-27T01:00:48.267Z,1.80
2017-12-27T01:01:48.270Z,2.10
2017-12-27T01:02:48.282Z,2.10
2017-12-27T01:03:48.281Z,1.50
2017-12-27T01:04:48.289Z,1.70
2017-12-27T01:05:48.294Z,1.50
2017-12-27T01:06:48.303Z,1.60
2017-12-27T01:07:48.305Z,2.80
2017-12-27T01:08:48.305Z,1.40
2017-12-27T01:09:48.316Z,1.30
2017-12-27T01:10:48.320Z,2.50
2017-12-27T01:11:48.319Z,1.80
2017-12-27T01:12:48.323Z,2.10
2017-12-27T01:13:48.333Z,2.40
2017-12-27T01:14:48.332Z,1.70
2017-12-27T01:15:48.343Z,1.90
2017-12-27T01:16:48.348Z,1.40
2017-12-27T01:17:48.356Z,2.40
2017-12-27T01:18:48.352Z,1.30
2017-12-27T01:19:48.355Z,1.40
2017-12-27T01:20:48.365Z,1.30
2017-12-27T01:21:48.366Z,2.20
2017-12-27T01:22:48.378Z,2.00
2017-12-27T01:23:48.376Z,2.10
2017-12-27T01:24:48.384Z,1.90
2017-12-27T01:25:48.390Z,3.20
2017-12-27T01:26:48.395Z,2.60
2017-12-27T01:27:48.399Z,1.90
2017-12-27T01:28:48.401Z,1.30
2017-12-27T01:29:48.408Z,1.40
2017-12-27T01:30:48.412Z,1.60
2017-12-27T01:31:48.419Z,1.50
2017-12-27T01:32:48.428Z,2.20
2017-12-27T01:33:48.425Z,1.60
2017-12-27T01:34:48.425Z,1.40
2017-12-27T01:35:48.434Z,1.40
2017-12-27T01:36:48.432Z,1.30
2017-12-27T01:37:48.443Z,1.60
2017-12-27T01:38:48.443Z,1.30
2017-12-27T01:39:48.453Z,1.80
2017-12-27T01:40:48.452Z,1.50
2017-12-27T01:41:48.458Z,1.60
2017-12-27T01:42:48.461Z,1.80
2017-12-27T01:43:48.466Z,1.60
2017-12-27T01:44:48.478Z,1.70
2017-12-27T01:45:48.480Z,1.80
2017-12-27T01:46:48.485Z,1.30
2017-12-27T01:47:48.490Z,1.40
2017-12-27T01:48:48.489Z,1.60
2017-12-27T01:49:48.495Z,1.30
2017-12-27T01:50:48.505Z,1.30
2017-12-27T01:51:48.503Z,1.60
2017-12-27T01:52:48.514Z,1.40
2017-12-27T01:53:48.513Z,1.30
2017-12-27T01:54:48.527Z,1.30
2017-12-27T01:55:48.523Z,1.50
2017-12-27T01:56:48.534Z,1.40
2017-12-27T01:57:48.532Z,1.40
2017-12-27T01:58:48.535Z,1.60
2017-12-27T01:59:48.542Z,1.40
2017-12-27T02:00:48.546Z,1.30
2017-12-27T02:01:48.550Z,1.60
2017-12-27T02:02:48.555Z,1.50
2017-12-27T02:03:48.568Z,1.30
2017-12-27T02:04:48.570Z,1.40
2017-12-27T02:05:48.569Z,1.30
2017-12-27T02:06:48.582Z,1.30
2017-12-27T02:07:48.589Z,1.50
2017-12-27T02:08:48.589Z,1.30
2017-12-27T02:09:48.594Z,1.60
2017-12-27T02:10:48.593Z,1.60
2017-12-27T02:11:48.607Z,1.70
2017-12-27T02:12:48.602Z,1.50
2017-12-27T02:13:48.610Z,1.20
2017-12-27T02:14:48.618Z,1.10
2017-12-27T02:15:48.620Z,1.10
2017-12-27T02:16:48.628Z,1.20
2017-12-27T02:17:48.626Z,1.90
2017-12-27T02:18:48.636Z,1.50
2017-12-27T02:19:48.641Z,1.70
2017-12-27T02:20:48.644Z,2.80
2017-12-27T02:21:48.648Z,1.30
2017-12-27T02:22:48.649Z,1.40
2017-12-27T02:23:48.662Z,1.80
2017-12-27T02:24:48.664Z,1.30
2017-12-27T02:25:48.663Z,2.40
2017-12-27T02:26:48.673Z,2.10
2017-12-27T02:27:48.675Z,1.30
2017-12-27T02:28:48.677Z,1.30
2017-12-27T02:29:48.688Z,1.60
2017-12-27T02:30:48.687Z,1.60
2017-12-27T02:31:48.693Z,1.20
2017-12-27T02:32:48.698Z,1.30
2017-12-27T02:33:48.706Z,1.10
2017-12-27T02:34:48.710Z,1.60
2017-12-27T02:35:48.717Z,1.50
2017-12-27T02:36:48.719Z,3.40
2017-12-27T02:37:48.726Z,2.00
2017-12-27T02:38:48.725Z,1.30
2017-12-27T02:39:48.734Z,1.20
2017-12-27T02:40:48.739Z,1.10
2017-12-27T02:41:48.736Z,1.30
2017-12-27T02:42:48.741Z,1.40
2017-12-27T02:43:48.752Z,2.70
2017-12-27T02:44:48.753Z,1.30
2017-12-27T02:45:48.762Z,1.60
2017-12-27T02:46:48.761Z,1.20
2017-12-27T02:47:48.771Z,1.30
2017-12-27T02:48:48.771Z,1.50
2017-12-27T02:49:48.774Z,1.40
2017-12-27T02:50:48.782Z,1.50
2017-12-27T02:51:48.790Z,1.50
2017-12-27T02:52:48.801Z,1.40
2017-12-27T02:53:48.793Z,2.70
2017-12-27T02:54:48.796Z,1.60
2017-12-27T02:55:48.804Z,1.40
2017-12-27T02:56:48.812Z,1.20
2017-12-27T02:57:48.811Z,1.90
2017-12-27T02:58:48.821Z,1.70
2017-12-27T02:59:48.825Z,1.30
2017-12-27T03:00:48.827Z,2.70
2017-12-27T03:01:48.829Z,2.10
2017-12-27T03:02:48.839Z,1.60
2017-12-27T03:03:48.839Z,1.20
2017-12-27T03:04:48.850Z,1.40
2017-12-27T03:05:48.852Z,1.30
2017-12-27T03:06:48.861Z,3.10
2017-12-27T03:07:48.864Z,1.20
2017-12-27T03:08:48.862Z,1.40
2017-12-27T03:09:48.865Z,1.30
2017-12-27T03:10:48.871Z,1.60
2017-12-27T03:11:48.876Z,1.20
2017-12-27T03:12:48.887Z,1.20
2017-12-27T03:13:48.885Z,1.90
2017-12-27T03:14:48.890Z,1.20
2017-12-27T03:15:48.900Z,1.40
2017-12-27T03:16:48.908Z,1.40
2017-12-27T03:17:48.907Z,1.40
2017-12-27T03:18:48.917Z,1.60
2017-12-27T03:19:48.915Z,1.30
2017-12-27T03:20:48.919Z,1.60
2017-12-27T03:21:48.929Z,1.10
2017-12-27T03:22:48.929Z,1.30
2017-12-27T03:23:48.935Z,1.20
2017-12-27T03:24:48.938Z,1.30
2017-12-27T03:25:48.942Z,1.10
2017-12-27T03:26:48.947Z,1.50
2017-12-27T03:27:48.951Z,2.40
2017-12-27T03:28:48.959Z,1.20
2017-12-27T03:29:48.968Z,1.30
2017-12-27T03:30:48.966Z,2.00
2017-12-27T03:31:48.973Z,1.60
2017-12-27T03:32:48.983Z,1.30
2017-12-27T03:33:48.982Z,1.20
2017-12-27T03:34:48.991Z,1.40
2017-12-27T03:35:48.991Z,1.50
2017-12-27T03:36:49.002Z,1.20
2017-12-27T03:37:49.005Z,1.50
2017-12-27T03:38:49.008Z,1.50
2017-12-27T03:39:49.011Z,1.40
2017-12-27T03:40:49.015Z,1.20
2017-12-27T03:41:49.018Z,1.20
2017-12-27T03:42:49.028Z,1.20
2017-12-27T03:43:49.036Z,1.20
2017-12-27T03:44:49.040Z,1.10
2017-12-27T03:45:49.047Z,1.30
2017-12-27T03:46:49.045Z,1.40
2017-12-27T03:47:49.055Z,1.20
2017-12-27T03:48:49.062Z,1.20
2017-12-27T03:49:49.063Z,1.30
2017-12-27T03:50:49.063Z,2.80
2017-12-27T03:51:49.068Z,1.10
2017-12-27T03:52:49.072Z,1.20
2017-12-27T03:53:49.083Z,1.20
2017-12-27T03:54:49.083Z,1.20
2017-12-27T03:55:49.095Z,1.10
2017-12-27T03:56:49.099Z,1.30
2017-12-27T03:57:49.096Z,1.70
2017-12-27T03:58:49.102Z,1.50
2017-12-27T03:59:49.111Z,1.70
2017-12-27T04:00:49.113Z,1.40
2017-12-27T04:01:49.120Z,1.40
2017-12-27T04:02:49.126Z,1.30
2017-12-27T04:03:49.135Z,1.30
2017-12-27T04:04:49.137Z,1.20
2017-12-27T04:05:49.140Z,1.30
2017-12-27T04:06:49.147Z,1.30
2017-12-27T04:07:49.150Z,1.40
2017-12-27T04:08:49.156Z,1.20
2017-12-27T04:09:49.154Z,2.80
2017-12-27T04:10:49.166Z,1.30
2017-12-27T04:11:49.166Z,6.40
2017-12-27T04:12:49.171Z,5.50
2017-12-27T04:13:49.174Z,2.30
2017-12-27T04:14:49.185Z,2.10
2017-12-27T04:15:49.187Z,1.40
2017-12-27T04:16:49.195Z,2.10
2017-12-27T04:17:49.195Z,2.70
2017-12-27T04:18:49.207Z,3.50
2017-12-27T04:19:49.204Z,2.10
2017-12-27T04:20:49.218Z,1.60
2017-12-27T04:21:49.218Z,2.00
2017-12-27T04:22:49.223Z,1.30
2017-12-27T04:23:49.229Z,1.30
2017-12-27T04:24:49.228Z,3.90
2017-12-27T04:25:49.234Z,1.80
2017-12-27T04:26:49.243Z,1.70
2017-12-27T04:27:49.244Z,1.40
2017-12-27T04:28:49.253Z,2.20
2017-12-27T04:29:49.258Z,1.80
2017-12-27T04:30:49.266Z,1.40
2017-12-27T04:31:49.261Z,1.20
2017-12-27T04:32:49.284Z,1.50
2017-12-27T04:33:49.276Z,1.20
2017-12-27T04:34:49.283Z,1.50
2017-12-27T04:35:49.283Z,1.50
2017-12-27T04:36:49.303Z,1.40
2017-12-27T04:37:49.292Z,1.20
2017-12-27T04:38:49.296Z,1.50
2017-12-27T04:39:49.309Z,1.20
2017-12-27T04:40:49.312Z,1.10
2017-12-27T04:41:49.316Z,1.00
2017-12-27T04:42:49.322Z,1.30
2017-12-27T04:43:49.323Z,1.20
2017-12-27T04:44:49.326Z,1.40
2017-12-27T04:45:49.332Z,1.20
2017-12-27T04:46:49.334Z,1.40
2017-12-27T04:47:49.345Z,1.30
2017-12-27T04:48:49.352Z,1.20
2017-12-27T04:49:49.351Z,1.20
2017-12-27T04:50:49.362Z,1.40
2017-12-27T04:51:49.366Z,1.40
2017-12-27T04:52:49.369Z,1.50
2017-12-27T04:53:49.371Z,2.30
2017-12-27T04:54:49.381Z,1.60
2017-12-27T04:55:49.386Z,1.30
2017-12-27T04:56:49.385Z,1.50
2017-12-27T04:57:49.393Z,1.40
2017-12-27T04:58:49.398Z,1.30
2017-12-27T04:59:49.398Z,1.70
2017-12-27T05:00:49.405Z,1.40
2017-12-27T05:01:49.411Z,1.60
2017-12-27T05:02:49.412Z,1.50
2017-12-27T05:03:49.423Z,1.70
2017-12-27T05:04:49.427Z,1.40
2017-12-27T05:05:49.425Z,1.60
2017-12-27T05:06:49.432Z,1.10
2017-12-27T05:07:49.437Z,1.20
2017-12-27T05:08:49.446Z,1.20
2017-12-27T05:09:49.450Z,1.40
2017-12-27T05:10:49.450Z,1.20
2017-12-27T05:11:49.454Z,1.50
2017-12-27T05:12:49.461Z,1.40
2017-12-27T05:13:49.471Z,1.20
2017-12-27T05:14:49.476Z,1.10
2017-12-27T05:15:49.479Z,1.40
2017-12-27T05:16:49.483Z,2.50
2017-12-27T05:17:49.489Z,1.80
2017-12-27T05:18:49.493Z,2.70
2017-12-27T05:19:49.491Z,1.30
2017-12-27T05:20:49.498Z,1.10
2017-12-27T05:21:49.501Z,1.30
2017-12-27T05:22:49.507Z,2.30
2017-12-27T05:23:49.520Z,1.30
2017-12-27T05:24:49.519Z,1.20
2017-12-27T05:25:49.525Z,1.20
2017-12-27T05:26:49.529Z,1.10
2017-12-27T05:27:49.538Z,1.10
2017-12-27T05:28:49.543Z,1.30
2017-12-27T05:29:49.549Z,1.40
2017-12-27T05:30:49.546Z,1.90
2017-12-27T05:31:49.558Z,1.40
2017-12-27T05:32:49.562Z,2.30
2017-12-27T05:33:49.569Z,2.10
2017-12-27T05:34:49.568Z,1.20
2017-12-27T05:35:49.577Z,2.20
2017-12-27T05:36:49.575Z,1.80
2017-12-27T05:37:49.582Z,1.60
2017-12-27T05:38:49.589Z,1.40
2017-12-27T05:39:49.596Z,3.20
2017-12-27T05:40:49.602Z,1.40
2017-12-27T05:41:49.604Z,1.30
2017-12-27T05:42:49.611Z,1.30
2017-12-27T05:43:49.614Z,2.60
2017-12-27T05:44:49.614Z,2.20
2017-12-27T05:45:49.625Z,2.40
2017-12-27T05:46:49.623Z,1.90
2017-12-27T05:47:49.631Z,1.90
2017-12-27T05:48:49.639Z,1.80
2017-12-27T05:49:49.644Z,1.70
2017-12-27T05:50:49.651Z,1.70
2017-12-27T05:51:49.648Z,1.80
2017-12-27T05:52:49.660Z,1.90
2017-12-27T05:53:49.658Z,1.50
2017-12-27T05:54:49.667Z,1.50
2017-12-27T05:55:49.673Z,1.50
2017-12-27T05:56:49.683Z,1.50
2017-12-27T05:57:49.681Z,1.50
2017-12-27T05:58:49.692Z,1.20
2017-12-27T05:59:49.685Z,1.40
2017-12-27T06:00:49.691Z,1.70
2017-12-27T06:01:49.695Z,1.50
2017-12-27T06:02:49.700Z,1.70
2017-12-27T06:03:49.710Z,3.30
2017-12-27T06:04:49.714Z,2.30
2017-12-27T06:05:49.722Z,1.50
2017-12-27T06:06:49.724Z,1.30
2017-12-27T06:07:49.722Z,1.40
2017-12-27T06:08:49.728Z,1.30
2017-12-27T06:09:49.737Z,1.30
2017-12-27T06:10:49.741Z,1.30
2017-12-27T06:11:49.741Z,1.40
2017-12-27T06:12:49.749Z,1.50
2017-12-27T06:13:49.796Z,1.40
2017-12-27T06:14:49.758Z,1.50
2017-12-27T06:15:49.768Z,1.30
2017-12-27T06:16:49.770Z,1.40
2017-12-27T06:17:49.769Z,1.30
2017-12-27T06:18:49.774Z,2.00
2017-12-27T06:19:49.783Z,2.30
2017-12-27T06:20:49.785Z,1.40
2017-12-27T06:21:49.793Z,1.40
2017-12-27T06:22:49.798Z,1.10
2017-12-27T06:23:49.803Z,1.30
2017-12-27T06:24:49.809Z,1.30
2017-12-27T06:25:49.807Z,1.20
2017-12-27T06:26:49.814Z,1.30
2017-12-27T06:27:49.820Z,1.30
2017-12-27T06:28:49.822Z,1.20
2017-12-27T06:29:49.830Z,1.20
2017-12-27T06:30:49.829Z,1.30
2017-12-27T06:31:49.842Z,1.40
2017-12-27T06:32:49.838Z,1.30
2017-12-27T06:33:49.844Z,1.30
2017-12-27T06:34:49.853Z,1.20
2017-12-27T06:35:49.850Z,1.40
2017-12-27T06:36:49.865Z,1.30
2017-12-27T06:37:49.861Z,1.30
2017-12-27T06:38:49.870Z,1.30
2017-12-27T06:39:49.870Z,1.40
2017-12-27T06:40:49.880Z,1.30
2017-12-27T06:41:49.888Z,3.00
2017-12-27T06:42:49.883Z,2.10
2017-12-27T06:43:49.888Z,1.20
2017-12-27T06:44:49.896Z,1.40
2017-12-27T06:45:49.896Z,2.60
2017-12-27T06:46:49.907Z,1.40
2017-12-27T06:47:49.907Z,2.20
2017-12-27T06:48:49.911Z,1.40
2017-12-27T06:49:49.923Z,1.60
2017-12-27T06:50:49.926Z,1.40
2017-12-27T06:51:49.925Z,1.50
2017-12-27T06:52:49.936Z,1.30
2017-12-27T06:53:49.939Z,1.30
2017-12-27T06:54:49.947Z,1.60
2017-12-27T06:55:49.944Z,1.40
2017-12-27T06:56:49.954Z,1.40
2017-12-27T06:57:49.955Z,1.30
2017-12-27T06:58:49.966Z,1.30
2017-12-27T06:59:49.970Z,1.30
2017-12-27T07:00:49.976Z,1.30
2017-12-27T07:01:49.971Z,1.20
2017-12-27T07:02:49.982Z,1.50
2017-12-27T07:03:49.984Z,2.40
2017-12-27T07:04:49.991Z,2.10
2017-12-27T07:05:49.997Z,3.00
2017-12-27T07:06:50.006Z,5.50
2017-12-27T07:07:50.003Z,7.20
2017-12-27T07:08:50.006Z,5.60
2017-12-27T07:09:50.009Z,5.00
2017-12-27T07:10:50.016Z,2.90
2017-12-27T07:11:50.032Z,2.30
2017-12-27T07:12:50.033Z,2.10
2017-12-27T07:13:50.034Z,1.80
2017-12-27T07:14:50.033Z,1.70
2017-12-27T07:15:50.037Z,1.30
2017-12-27T07:16:50.052Z,2.50
2017-12-27T07:17:50.054Z,1.20
2017-12-27T07:18:50.052Z,1.40
2017-12-27T07:19:50.061Z,2.10
2017-12-27T07:20:50.063Z,1.60
2017-12-27T07:21:50.065Z,1.20
2017-12-27T07:22:50.070Z,1.30
2017-12-27T07:23:50.080Z,1.30
2017-12-27T07:24:50.080Z,1.30
2017-12-27T07:25:50.090Z,1.20
2017-12-27T07:26:50.098Z,1.30
2017-12-27T07:27:50.093Z,1.30
2017-12-27T07:28:50.100Z,2.50
2017-12-27T07:29:50.102Z,1.30
2017-12-27T07:30:50.107Z,1.50
2017-12-27T07:31:50.115Z,1.30
2017-12-27T07:32:50.123Z,1.40
2017-12-27T07:33:50.123Z,1.20
2017-12-27T07:34:50.142Z,1.20
2017-12-27T07:35:50.131Z,1.40
2017-12-27T07:36:50.140Z,1.50
2017-12-27T07:37:50.142Z,1.30
2017-12-27T07:38:50.147Z,1.30
2017-12-27T07:39:50.200Z,1.50
2017-12-27T07:40:50.166Z,1.40
2017-12-27T07:41:50.168Z,1.20
2017-12-27T07:42:50.171Z,1.40
2017-12-27T07:43:50.170Z,1.30
2017-12-27T07:44:50.176Z,1.40
2017-12-27T07:45:50.187Z,1.30
2017-12-27T07:46:50.187Z,1.80
2017-12-27T07:47:50.198Z,2.10
2017-12-27T07:48:50.195Z,1.30
2017-12-27T07:49:50.205Z,1.30
2017-12-27T07:50:50.213Z,1.40
2017-12-27T07:51:50.217Z,1.20
2017-12-27T07:52:50.220Z,1.30
2017-12-27T07:53:50.228Z,1.50
2017-12-27T07:54:50.228Z,1.30
2017-12-27T07:55:50.232Z,1.20
2017-12-27T07:56:50.236Z,1.50
2017-12-27T07:57:50.245Z,1.20
2017-12-27T07:58:50.243Z,1.30
2017-12-27T07:59:50.255Z,1.20
2017-12-27T08:00:50.254Z,1.30
2017-12-27T08:01:50.263Z,1.30
2017-12-27T08:02:50.269Z,1.60
2017-12-27T08:03:50.277Z,1.30
2017-12-27T08:04:50.281Z,1.30
2017-12-27T08:05:50.277Z,1.20
2017-12-27T08:06:50.282Z,1.20
2017-12-27T08:07:50.288Z,1.30
2017-12-27T08:08:50.293Z,1.60
2017-12-27T08:09:50.311Z,1.40
2017-12-27T08:10:50.353Z,1.40
2017-12-27T08:11:50.311Z,1.30
2017-12-27T08:12:50.313Z,1.30
2017-12-27T08:13:50.321Z,1.50
2017-12-27T08:14:50.325Z,1.30
2017-12-27T08:15:50.336Z,1.30
2017-12-27T08:16:50.340Z,1.20
2017-12-27T08:17:50.339Z,1.20
2017-12-27T08:18:50.350Z,1.50
2017-12-27T08:19:50.354Z,1.30
2017-12-27T08:20:50.355Z,1.40
2017-12-27T08:21:50.363Z,1.40
2017-12-27T08:22:50.363Z,2.10
2017-12-27T08:23:50.372Z,3.70
2017-12-27T08:24:50.383Z,4.00
2017-12-27T08:25:50.376Z,3.10
2017-12-27T08:26:50.387Z,2.30
2017-12-27T08:27:50.389Z,2.70
2017-12-27T08:28:50.397Z,1.80
2017-12-27T08:29:50.404Z,2.10
2017-12-27T08:30:50.407Z,2.20
2017-12-27T08:31:50.416Z,2.40
2017-12-27T08:32:50.416Z,2.30
2017-12-27T08:33:50.419Z,1.80
2017-12-27T08:34:50.425Z,2.70
2017-12-27T08:35:50.427Z,2.90
2017-12-27T08:36:50.440Z,2.40
2017-12-27T08:37:50.436Z,1.50
2017-12-27T08:38:50.440Z,1.80
2017-12-27T08:39:50.451Z,2.10
2017-12-27T08:40:50.452Z,2.30
2017-12-27T08:41:50.457Z,4.50
2017-12-27T08:42:50.469Z,3.90
2017-12-27T08:43:50.473Z,4.00
2017-12-27T08:44:50.477Z,3.70
2017-12-27T08:45:50.483Z,4.80
2017-12-27T08:46:50.489Z,5.00
2017-12-27T08:47:50.492Z,4.50
2017-12-27T08:48:50.500Z,3.60
2017-12-27T08:49:50.506Z,3.20
2017-12-27T08:50:50.510Z,3.40
2017-12-27T08:51:50.509Z,3.60
2017-12-27T08:52:50.523Z,2.70
2017-12-27T08:53:50.521Z,2.20
2017-12-27T08:54:50.532Z,2.60
2017-12-27T08:55:50.535Z,2.30
2017-12-27T08:56:50.540Z,3.20
2017-12-27T08:57:50.539Z,2.00
2017-12-27T08:58:50.545Z,2.00
2017-12-27T08:59:50.558Z,2.10
2017-12-27T09:00:50.562Z,2.00
2017-12-27T09:01:50.563Z,2.30
2017-12-27T09:02:50.566Z,1.60
2017-12-27T09:03:50.577Z,1.80
2017-12-27T09:04:50.583Z,1.50
2017-12-27T09:05:50.587Z,1.40
2017-12-27T09:06:50.588Z,1.80
2017-12-27T09:07:50.599Z,1.30
2017-12-27T09:08:50.600Z,1.50
2017-12-27T09:09:50.606Z,1.60
2017-12-27T09:10:50.613Z,2.20
2017-12-27T09:11:50.622Z,1.40
2017-12-27T09:12:50.623Z,1.30
2017-12-27T09:13:50.625Z,1.40
2017-12-27T09:14:50.630Z,1.80
2017-12-27T09:15:50.644Z,1.40
2017-12-27T09:16:50.642Z,1.50
2017-12-27T09:17:50.648Z,1.80
2017-12-27T09:18:50.661Z,1.70
2017-12-27T09:19:50.658Z,1.80
2017-12-27T09:20:50.687Z,1.80
2017-12-27T09:21:50.675Z,2.50
2017-12-27T09:22:50.681Z,2.70
2017-12-27T09:23:50.680Z,3.10
2017-12-27T09:24:50.691Z,3.70
2017-12-27T09:25:50.692Z,4.50
2017-12-27T09:26:50.702Z,3.40
2017-12-27T09:27:50.708Z,3.20
2017-12-27T09:28:50.713Z,2.80
2017-12-27T09:29:50.719Z,2.40
2017-12-27T09:30:50.720Z,2.20
2017-12-27T09:31:50.724Z,2.80
2017-12-27T09:32:50.741Z,3.20
2017-12-27T09:33:50.735Z,2.80
2017-12-27T09:34:50.745Z,3.60
2017-12-27T09:35:50.759Z,3.30
2017-12-27T09:36:50.754Z,5.30
2017-12-27T09:37:50.765Z,5.80
2017-12-27T09:38:50.763Z,7.60
2017-12-27T09:39:50.779Z,4.90
2017-12-27T09:40:50.775Z,3.70
2017-12-27T09:41:50.780Z,3.80
2017-12-27T09:42:50.791Z,6.10
2017-12-27T09:43:50.792Z,1.50
2017-12-27T09:44:50.804Z,1.50
2017-12-27T09:45:50.802Z,1.80
2017-12-27T09:46:50.815Z,1.50
2017-12-27T09:47:50.820Z,1.60
2017-12-27T09:48:50.825Z,1.30
2017-12-27T09:49:50.825Z,1.30
2017-12-27T09:50:50.837Z,1.90
2017-12-27T09:51:50.837Z,1.40
2017-12-27T09:52:50.841Z,1.30
2017-12-27T09:53:50.852Z,1.60
2017-12-27T09:54:50.857Z,1.60
2017-12-27T09:55:50.861Z,2.30
2017-12-27T09:56:50.863Z,1.50
2017-12-27T09:57:50.878Z,2.30
2017-12-27T09:58:50.872Z,1.90
2017-12-27T09:59:50.884Z,1.90
2017-12-27T10:00:50.891Z,1.90
2017-12-27T10:01:50.894Z,1.80
2017-12-27T10:02:50.901Z,1.90
2017-12-27T10:03:50.899Z,1.70
2017-12-27T10:04:50.908Z,1.60
2017-12-27T10:05:50.916Z,1.70
2017-12-27T10:06:50.922Z,1.40
2017-12-27T10:07:50.928Z,1.70
2017-12-27T10:08:50.935Z,1.40
2017-12-27T10:09:50.933Z,1.70
2017-12-27T10:10:50.949Z,1.70
2017-12-27T10:11:50.948Z,2.30
2017-12-27T10:12:50.953Z,2.60
2017-12-27T10:13:50.958Z,2.70
2017-12-27T10:14:50.959Z,2.90
2017-12-27T10:15:50.965Z,3.20
2017-12-27T10:16:50.978Z,2.30
2017-12-27T10:17:50.974Z,2.10
2017-12-27T10:18:51.031Z,1.60
2017-12-27T10:19:50.987Z,3.20
2017-12-27T10:20:50.996Z,1.80
2017-12-27T10:21:50.997Z,1.70
2017-12-27T10:22:51.004Z,1.60
2017-12-27T10:23:51.011Z,1.30
2017-12-27T10:24:51.020Z,1.70
2017-12-27T10:25:51.027Z,1.60
2017-12-27T10:26:51.035Z,1.50
2017-12-27T10:27:51.038Z,1.50
2017-12-27T10:28:51.039Z,1.30
2017-12-27T10:29:51.048Z,1.60
2017-12-27T10:30:51.047Z,1.30
2017-12-27T10:31:51.061Z,1.30
2017-12-27T10:32:51.062Z,1.30
2017-12-27T10:33:51.074Z,1.60
2017-12-27T10:34:51.080Z,1.40
2017-12-27T10:35:51.082Z,1.20
2017-12-27T10:36:51.134Z,1.40
2017-12-27T10:37:51.092Z,1.40
2017-12-27T10:38:51.095Z,1.40
2017-12-27T10:39:51.103Z,1.50
2017-12-27T10:40:51.107Z,1.60
2017-12-27T10:41:51.110Z,1.60
2017-12-27T10:42:51.134Z,1.40
2017-12-27T10:43:51.137Z,1.40
2017-12-27T10:44:51.134Z,2.00
2017-12-27T10:45:51.133Z,1.30
2017-12-27T10:46:51.139Z,1.30
2017-12-27T10:47:51.150Z,1.20
2017-12-27T10:48:51.155Z,1.40
2017-12-27T10:49:51.165Z,1.40
2017-12-27T10:50:51.166Z,1.40
2017-12-27T10:51:51.169Z,2.10
2017-12-27T10:52:51.179Z,1.50
2017-12-27T10:53:51.182Z,1.30
2017-12-27T10:54:51.189Z,1.30
2017-12-27T10:55:51.198Z,3.30
2017-12-27T10:56:51.196Z,1.20
2017-12-27T10:57:51.200Z,1.70
2017-12-27T10:58:51.206Z,1.50
2017-12-27T10:59:51.212Z,1.50
2017-12-27T11:00:51.220Z,1.40
2017-12-27T11:01:51.223Z,1.90
2017-12-27T11:02:51.234Z,1.60
2017-12-27T11:03:51.242Z,1.80
2017-12-27T11:04:51.244Z,1.40
2017-12-27T11:05:51.255Z,1.40
2017-12-27T11:06:51.256Z,1.30
2017-12-27T11:07:51.261Z,1.60
2017-12-27T11:08:51.266Z,1.30
2017-12-27T11:09:51.275Z,1.50
2017-12-27T11:10:51.274Z,2.10
2017-12-27T11:11:51.288Z,1.30
2017-12-27T11:12:51.288Z,1.30
2017-12-27T11:13:51.301Z,1.80
2017-12-27T11:14:51.304Z,1.30
2017-12-27T11:15:51.307Z,1.60
2017-12-27T11:16:51.311Z,1.70
2017-12-27T11:17:51.319Z,1.50
2017-12-27T11:18:51.331Z,1.40
2017-12-27T11:19:51.334Z,3.70
2017-12-27T11:20:51.342Z,1.30
2017-12-27T11:21:51.341Z,1.30
2017-12-27T11:22:51.352Z,1.20
2017-12-27T11:23:51.356Z,1.40
2017-12-27T11:24:51.365Z,2.00
2017-12-27T11:25:51.365Z,1.40
2017-12-27T11:26:51.368Z,1.40
2017-12-27T11:27:51.375Z,1.80
2017-12-27T11:28:51.380Z,2.30
2017-12-27T11:29:51.385Z,1.50
2017-12-27T11:30:51.391Z,1.40
2017-12-27T11:31:51.404Z,1.40
2017-12-27T11:32:51.408Z,1.80
2017-12-27T11:33:51.420Z,2.40
2017-12-27T11:34:51.417Z,1.60
2017-12-27T11:35:51.423Z,1.70
2017-12-27T11:36:51.428Z,1.60
2017-12-27T11:37:51.435Z,1.40
2017-12-27T11:38:51.441Z,1.70
2017-12-27T11:39:51.447Z,1.40
2017-12-27T11:40:51.459Z,1.80
2017-12-27T11:41:51.458Z,1.70
2017-12-27T11:42:51.465Z,3.70
2017-12-27T11:43:51.476Z,1.60
2017-12-27T11:44:51.497Z,1.80
2017-12-27T11:45:51.481Z,2.30
2017-12-27T11:46:51.508Z,1.70
2017-12-27T11:47:51.506Z,1.40
2017-12-27T11:48:51.506Z,1.60
2017-12-27T11:49:51.513Z,2.80
2017-12-27T11:50:51.549Z,1.40
2017-12-27T11:51:51.527Z,2.00
2017-12-27T11:52:51.525Z,1.40
2017-12-27T11:53:51.537Z,1.60
2017-12-27T11:54:51.543Z,1.40
2017-12-27T11:55:51.548Z,1.70
2017-12-27T11:56:51.547Z,2.30
2017-12-27T11:57:51.560Z,1.40
2017-12-27T11:58:51.563Z,1.30
2017-12-27T11:59:51.570Z,1.90
2017-12-27T12:00:51.573Z,1.70
2017-12-27T12:01:51.583Z,1.60
2017-12-27T12:02:51.587Z,1.40
2017-12-27T12:03:51.595Z,2.40
2017-12-27T12:04:51.598Z,2.00
2017-12-27T12:05:51.604Z,1.40
2017-12-27T12:06:51.616Z,2.70
2017-12-27T12:07:51.618Z,2.50
2017-12-27T12:08:51.627Z,1.20
2017-12-27T12:09:51.632Z,1.30
2017-12-27T12:10:51.632Z,1.80
2017-12-27T12:11:51.637Z,2.20
2017-12-27T12:12:51.657Z,1.80
2017-12-27T12:13:51.651Z,2.30
2017-12-27T12:14:51.656Z,2.00
2017-12-27T12:15:51.664Z,1.70
2017-12-27T12:16:51.669Z,1.70
2017-12-27T12:17:51.673Z,2.00
2017-12-27T12:18:51.709Z,2.00
2017-12-27T12:19:51.687Z,1.60
2017-12-27T12:20:51.691Z,1.30
2017-12-27T12:21:51.707Z,1.40
2017-12-27T12:22:51.708Z,1.30
2017-12-27T12:23:51.712Z,1.50
2017-12-27T12:24:51.716Z,1.50
2017-12-27T12:25:51.725Z,1.70
2017-12-27T12:26:51.727Z,1.30
2017-12-27T12:27:51.741Z,1.50
2017-12-27T12:28:51.740Z,2.30
2017-12-27T12:29:51.745Z,1.50
2017-12-27T12:30:51.752Z,1.40
2017-12-27T12:31:51.762Z,1.80
2017-12-27T12:32:51.762Z,1.40
2017-12-27T12:33:51.768Z,1.50
2017-12-27T12:34:51.784Z,1.80
2017-12-27T12:35:51.785Z,1.50
2017-12-27T12:36:51.795Z,2.30
2017-12-27T12:37:51.789Z,1.30
2017-12-27T12:38:51.798Z,1.20
2017-12-27T12:39:51.803Z,1.40
2017-12-27T12:40:51.815Z,2.40
2017-12-27T12:41:51.821Z,1.50
2017-12-27T12:42:51.820Z,1.50
2017-12-27T12:43:51.825Z,1.50
2017-12-27T12:44:51.838Z,1.70
2017-12-27T12:45:51.842Z,1.50
2017-12-27T12:46:51.848Z,4.00
2017-12-27T12:47:51.853Z,1.60
2017-12-27T12:48:51.860Z,1.40
2017-12-27T12:49:51.866Z,1.30
2017-12-27T12:50:51.874Z,1.50
2017-12-27T12:51:51.872Z,1.50
2017-12-27T12:52:51.882Z,1.30
2017-12-27T12:53:51.884Z,1.90
2017-12-27T12:54:51.896Z,2.10
2017-12-27T12:55:51.902Z,1.90
2017-12-27T12:56:51.907Z,1.50
2017-12-27T12:57:51.909Z,1.40
2017-12-27T12:58:51.919Z,1.50
2017-12-27T12:59:51.929Z,1.90
2017-12-27T13:00:51.925Z,1.60
2017-12-27T13:01:51.930Z,1.50
2017-12-27T13:02:51.946Z,1.50
2017-12-27T13:03:51.949Z,2.20
2017-12-27T13:04:51.956Z,1.60
2017-12-27T13:05:51.977Z,1.50
2017-12-27T13:06:51.969Z,1.70
2017-12-27T13:07:51.970Z,1.40
2017-12-27T13:08:51.987Z,1.30
2017-12-27T13:09:51.994Z,1.40
2017-12-27T13:10:51.991Z,1.60
2017-12-27T13:11:51.996Z,1.70
2017-12-27T13:12:52.008Z,1.30
2017-12-27T13:13:52.009Z,1.30
2017-12-27T13:14:52.016Z,1.50
2017-12-27T13:15:52.014Z,1.60
2017-12-27T13:16:52.025Z,1.60
2017-12-27T13:17:52.022Z,2.80
2017-12-27T13:18:52.033Z,1.30